Time;durP1;ratioP1;P1;durP2;ratioP2;P2;SDS_P1;SDS_P2;PMS_P1;PMS_P2;Temp;Humidity;BMP_temperature;BMP_pressure;BME280_temperature;BME280_humidity;BME280_pressure;Samples;Min_cycle;Max_cycle;Signal;HPM_P1;HPM_P2
2022/11/05 01:04:27;;;;;;;;;;;;;;;;;;;;;
2022/11/05 02:38:59;;;;;;;;;;;;;;;;;;;;;
2022/11/05 02:54:10;;;;;;;;;;;;;;;;;;;;;
2022/11/05 03:04:20;;;;;;;;;;;;;;;;;;;;;
2022/11/05 03:31:23;;;;;;;3.03;2.72;;;3.70;99.90;;;;;;5004196;22;28587399;-87
2022/11/05 03:36:23;;;;;;;3.15;2.85;;;3.70;99.90;;;;;;6208188;23;20035;-88
2022/11/05 03:41:09;;;;;;;;;;;;;;;;;;;;;
2022/11/05 04:33:15;;;;;;;7.68;6.85;;;3.70;99.90;;;;;;6215921;23;20008;-88
2022/11/05 04:35:47;;;;;;;12.60;6.13;;;3.70;99.90;;;;;;6164968;23;20031;-85
2022/11/05 04:38:18;;;;;;;5.25;4.75;;;3.80;99.90;;;;;;6164727;23;20013;-85
2022/11/05 04:40:47;;;;;;;4.18;3.85;;;3.80;99.90;;;;;;6139744;23;20031;-86
2022/11/05 04:43:17;;;;;;;6.05;5.38;;;3.90;99.90;;;;;;6163140;23;20021;-86
2022/11/05 04:45:45;;;;;;;4.40;4.03;;;3.80;99.90;;;;;;6225596;23;20016;-85
2022/11/05 04:48:13;;;;;;;5.82;5.10;;;3.80;99.90;;;;;;6188693;23;20455;-85
2022/11/05 04:50:40;;;;;;;7.32;5.97;;;3.70;99.90;;;;;;6225182;23;20031;-85
2022/11/05 04:53:08;;;;;;;5.45;4.95;;;3.90;99.90;;;;;;6165418;23;20021;-85
2022/11/05 04:55:39;;;;;;;6.35;5.75;;;3.90;99.90;;;;;;6169428;23;20024;-85
2022/11/05 04:58:08;;;;;;;6.38;5.88;;;3.90;99.90;;;;;;6224367;23;20008;-85
2022/11/05 05:00:35;;;;;;;5.82;5.30;;;3.90;99.90;;;;;;6214358;23;20317;-85
2022/11/05 05:03:03;;;;;;;5.32;4.93;;;3.90;99.90;;;;;;6214156;23;20020;-85
2022/11/05 05:05:30;;;;;;;5.82;4.50;;;3.90;99.90;;;;;;6226399;23;20020;-85
2022/11/05 05:08:02;;;;;;;7.10;6.50;;;4.00;99.90;;;;;;6218659;23;20048;-85
2022/11/05 05:10:30;;;;;;;4.97;4.57;;;4.00;99.90;;;;;;6199029;23;20028;-85
2022/11/05 05:12:58;;;;;;;11.02;6.82;;;4.00;99.90;;;;;;6175237;23;20013;-85
2022/11/05 05:15:25;;;;;;;4.93;4.07;;;4.10;99.90;;;;;;6194925;23;20444;-85
2022/11/05 05:17:53;;;;;;;9.88;6.30;;;4.00;99.90;;;;;;6164797;23;20028;-85
2022/11/05 05:23:06;;;;;;;8.45;6.50;;;3.90;99.90;;;;;;6163521;23;20340;-85
2022/11/05 05:25:34;;;;;;;5.95;5.38;;;3.90;99.90;;;;;;6226193;23;20020;-85
2022/11/05 05:28:01;;;;;;;5.30;4.80;;;4.00;99.90;;;;;;6191706;23;20035;-85
2022/11/05 05:30:29;;;;;;;6.13;5.55;;;4.00;99.90;;;;;;6139633;23;20344;-84
2022/11/05 05:33:00;;;;;;;6.57;5.10;;;4.00;99.90;;;;;;6224257;23;20444;-85
2022/11/05 05:35:28;;;;;;;;;;;4.00;99.90;;;;;;6214003;23;20024;-85
2022/11/05 05:37:55;;;;;;;7.78;7.03;;;4.00;99.90;;;;;;6224010;23;19919;-85
2022/11/05 05:40:23;;;;;;;7.18;6.03;;;4.00;99.90;;;;;;6216757;23;20025;-85
2022/11/05 05:42:54;;;;;;;9.45;5.65;;;4.00;99.90;;;;;;6196777;23;20027;-85
2022/11/05 05:45:22;;;;;;;8.93;5.22;;;4.00;99.90;;;;;;6199566;23;20024;-85
2022/11/05 05:47:49;;;;;;;8.75;7.85;;;4.00;99.90;;;;;;6217778;23;20027;-85
2022/11/05 05:50:17;;;;;;;7.80;5.78;;;4.00;99.90;;;;;;6225875;23;20593;-85
2022/11/05 05:56:41;;;;;;;7.13;6.07;;;4.00;99.90;;;;;;6183502;23;20017;-89
2022/11/05 05:59:08;;;;;;;6.20;4.97;;;4.00;99.90;;;;;;6184775;23;20017;-89
2022/11/05 06:01:36;;;;;;;5.75;5.15;;;4.00;99.90;;;;;;6136464;23;20013;-89
2022/11/05 06:04:04;;;;;;;8.73;7.85;;;4.20;99.90;;;;;;6162889;23;20456;-89
2022/11/05 06:06:32;;;;;;;8.90;6.03;;;4.20;99.90;;;;;;6135011;23;20017;-89
2022/11/05 06:08:59;;;;;;;6.43;5.90;;;4.30;99.90;;;;;;6185301;23;20348;-88
2022/11/05 06:11:27;;;;;;;5.97;5.20;;;4.30;99.90;;;;;;6135138;23;20025;-88
2022/11/05 06:13:55;;;;;;;9.38;7.10;;;4.30;99.90;;;;;;6160427;23;20448;-89
2022/11/05 06:16:22;;;;;;;8.43;5.80;;;4.30;99.90;;;;;;6135469;23;20323;-89
2022/11/05 06:18:50;;;;;;;6.72;6.07;;;4.40;99.90;;;;;;6135186;23;20325;-89
2022/11/05 06:21:18;;;;;;;7.13;5.40;;;4.40;99.90;;;;;;6170717;23;20013;-89
2022/11/05 06:23:47;;;;;;;5.03;4.57;;;4.40;99.90;;;;;;6158946;23;20018;-89
2022/11/05 06:26:17;;;;;;;5.65;4.93;;;4.40;99.90;;;;;;6170602;23;20017;-89
2022/11/05 06:28:45;;;;;;;6.00;5.32;;;4.40;99.90;;;;;;6135123;23;20040;-89
2022/11/05 06:31:13;;;;;;;5.50;5.00;;;4.40;99.90;;;;;;6142691;23;20029;-89
2022/11/05 06:33:41;;;;;;;6.68;5.07;;;4.50;99.90;;;;;;6136277;23;20025;-89
2022/11/05 06:36:14;;;;;;;7.32;6.63;;;4.40;99.90;;;;;;6159817;23;20025;-89
2022/11/05 06:38:42;;;;;;;9.35;5.18;;;4.50;99.90;;;;;;6134600;23;20328;-89
2022/11/05 06:41:09;;;;;;;5.00;4.50;;;4.50;99.90;;;;;;6111819;23;20440;-89
2022/11/05 06:43:37;;;;;;;5.03;4.38;;;4.60;99.90;;;;;;6134519;23;20017;-89
2022/11/05 06:46:05;;;;;;;6.13;4.65;;;4.60;99.90;;;;;;6185191;23;20040;-89
2022/11/05 06:48:33;;;;;;;8.25;6.57;;;4.60;99.90;;;;;;6159892;23;20464;-89
2022/11/05 06:51:02;;;;;;;6.85;5.95;;;4.70;99.90;;;;;;6159725;23;20333;-89
2022/11/05 06:53:30;;;;;;;5.32;4.80;;;4.70;99.90;;;;;;6135791;23;20448;-89
2022/11/05 06:56:55;;;;;;;7.22;6.13;;;4.70;99.90;;;;;;6134981;23;20032;-87
2022/11/05 06:59:22;;;;;;;7.20;5.97;;;4.90;99.90;;;;;;6175807;23;20028;-89
2022/11/05 07:01:50;;;;;;;8.32;6.22;;;4.90;99.90;;;;;;6195336;23;20018;-89
2022/11/05 07:04:18;;;;;;;4.80;4.32;;;5.00;99.90;;;;;;6221562;23;20016;-89
2022/11/05 07:06:45;;;;;;;6.13;4.75;;;5.00;99.90;;;;;;6194119;23;20450;-89
2022/11/05 07:09:13;;;;;;;8.48;5.50;;;5.20;99.90;;;;;;6194807;23;20040;-89
2022/11/05 07:11:41;;;;;;;5.82;5.22;;;5.30;99.90;;;;;;6219040;23;20020;-90
2022/11/05 07:14:08;;;;;;;5.43;4.90;;;5.30;99.90;;;;;;6170504;23;20012;-89
2022/11/05 07:16:36;;;;;;;6.47;5.95;;;5.40;99.90;;;;;;6168592;23;20020;-89
2022/11/05 07:19:08;;;;;;;;;;;5.50;99.90;;;;;;6170062;23;20024;-88
2022/11/05 07:21:37;;;;;;;5.53;4.88;;;5.50;99.90;;;;;;6220130;23;20330;-88
2022/11/05 07:28:15;;;;;;;4.40;3.78;;;5.60;99.90;;;;;;6220460;23;20016;-87
2022/11/05 07:30:43;;;;;;;13.60;4.45;;;5.60;99.90;;;;;;6194131;23;20024;-89
2022/11/05 07:33:10;;;;;;;3.10;2.90;;;5.70;99.90;;;;;;6205916;23;20020;-87
2022/11/05 07:35:38;;;;;;;3.47;3.17;;;5.80;99.90;;;;;;6199449;23;20016;-89
2022/11/05 07:38:09;;;;;;;5.70;3.45;;;5.90;99.90;;;;;;6168790;23;20017;-89
2022/11/05 07:40:37;;;;;;;5.93;3.13;;;6.00;99.90;;;;;;6193501;23;20024;-89
2022/11/05 07:43:04;;;;;;;3.85;3.50;;;6.10;99.90;;;;;;6226713;23;20363;-89
2022/11/05 07:45:32;;;;;;;4.03;3.65;;;6.20;99.90;;;;;;6219727;23;20035;-89
2022/11/05 07:48:02;;;;;;;5.13;3.35;;;6.30;99.90;;;;;;6169381;23;20020;-89
2022/11/05 07:50:34;;;;;;;5.82;4.35;;;6.40;99.90;;;;;;6218550;23;20016;-89
2022/11/05 07:53:06;;;;;;;4.07;3.53;;;6.40;99.90;;;;;;6230050;23;20431;-89
2022/11/05 07:55:34;;;;;;;5.07;3.58;;;6.50;99.90;;;;;;6219020;23;20032;-89
2022/11/05 07:58:02;;;;;;;4.15;3.75;;;6.50;99.90;;;;;;6224795;23;20023;-89
2022/11/05 08:00:31;;;;;;;3.88;3.55;;;6.50;99.90;;;;;;6220556;23;20451;-88
2022/11/05 08:03:10;;;;;;;7.82;5.22;;;6.60;99.90;;;;;;6195199;23;20027;-89
2022/11/05 08:05:42;;;;;;;5.50;4.53;;;6.70;99.90;;;;;;6221465;23;20017;-89
2022/11/05 08:08:11;;;;;;;3.35;3.05;;;6.70;99.90;;;;;;6223266;23;20028;-89
2022/11/05 08:10:40;;;;;;;3.70;3.35;;;6.80;99.90;;;;;;6256453;23;20023;-88
2022/11/05 08:13:08;;;;;;;5.05;4.47;;;6.90;99.90;;;;;;6171466;23;20016;-89
2022/11/05 08:15:39;;;;;;;3.35;3.05;;;6.80;99.90;;;;;;6200796;23;20016;-89
2022/11/05 08:18:13;;;;;;;4.10;3.17;;;6.90;99.90;;;;;;6195542;23;20473;-89
2022/11/05 08:20:47;;;;;;;4.53;3.88;;;6.90;99.90;;;;;;6221153;23;20023;-89
2022/11/05 08:23:22;;;;;;;4.63;4.13;;;6.80;99.90;;;;;;6219792;23;20043;-89
2022/11/05 08:25:49;;;;;;;5.65;3.88;;;6.90;99.90;;;;;;6171429;23;20331;-89
2022/11/05 08:28:18;;;;;;;4.97;3.58;;;6.90;99.90;;;;;;6221971;23;20020;-88
2022/11/05 08:30:50;;;;;;;5.90;3.80;;;6.80;99.90;;;;;;6228425;23;20440;-89
2022/11/05 08:33:19;;;;;;;3.45;3.00;;;6.90;99.90;;;;;;6195609;23;20027;-89
2022/11/05 08:35:47;;;;;;;6.70;3.78;;;6.90;99.90;;;;;;6194851;23;20024;-88
2022/11/05 08:38:17;;;;;;;4.43;3.85;;;7.00;99.90;;;;;;6257535;23;20020;-84
2022/11/05 08:40:57;;;;;;;5.53;3.42;;;6.90;99.90;;;;;;6194518;23;20020;-86
2022/11/05 08:43:24;;;;;;;5.78;4.13;;;6.90;99.90;;;;;;6195317;23;20020;-88
2022/11/05 08:46:37;;;;;;;3.90;3.60;;;7.00;99.90;;;;;;6195594;23;20019;-90
2022/11/05 08:49:08;;;;;;;3.55;3.20;;;7.10;99.90;;;;;;6215552;23;20343;-91
2022/11/05 08:51:37;;;;;;;4.45;4.00;;;7.10;99.90;;;;;;6194141;23;20360;-88
2022/11/05 08:54:05;;;;;;;4.47;4.13;;;7.20;99.90;;;;;;6170874;23;20023;-90
2022/11/05 08:56:40;;;;;;;3.85;3.55;;;7.10;99.90;;;;;;6173110;23;20482;-86
2022/11/05 08:59:11;;;;;;;4.72;3.47;;;7.10;99.90;;;;;;6194630;23;20028;-88
2022/11/05 09:01:38;;;;;;;3.17;2.90;;;7.10;99.90;;;;;;6195375;23;20016;-88
2022/11/05 09:04:06;;;;;;;4.35;3.67;;;7.10;99.90;;;;;;6222513;23;20351;-89
2022/11/05 09:06:34;;;;;;;3.83;3.30;;;7.10;99.90;;;;;;6219232;23;20012;-88
2022/11/05 09:09:01;;;;;;;9.10;3.55;;;7.10;99.90;;;;;;6170116;23;20024;-90
2022/11/05 09:11:29;;;;;;;5.22;4.82;;;7.30;99.90;;;;;;6169437;23;20027;-89
2022/11/05 09:14:16;;;;;;;4.38;3.97;;;7.20;99.90;;;;;;6235312;23;20020;-88
2022/11/05 09:16:44;;;;;;;4.45;4.05;;;7.30;99.90;;;;;;6219377;22;20031;-88
2022/11/05 09:19:11;;;;;;;3.22;2.92;;;7.30;99.90;;;;;;6201540;23;20016;-88
2022/11/05 09:21:39;;;;;;;3.80;3.53;;;7.20;99.90;;;;;;6230370;23;20012;-90
2022/11/05 09:28:20;;;;;;;8.25;2.65;;;7.30;99.90;;;;;;6193664;23;20352;-90
2022/11/05 09:30:53;;;;;;;4.15;3.78;;;7.50;99.90;;;;;;6228046;23;20027;-90
2022/11/05 09:33:24;;;;;;;3.38;2.85;;;7.40;99.90;;;;;;6220438;23;20020;-89
2022/11/05 09:35:58;;;;;;;4.28;3.47;;;7.50;99.90;;;;;;6223599;23;20035;-90
2022/11/05 09:38:25;;;;;;;5.45;3.22;;;7.50;99.90;;;;;;6229370;23;20012;-90
2022/11/05 09:41:06;;;;;;;3.55;3.25;;;7.60;99.90;;;;;;6194994;23;20016;-90
2022/11/05 09:43:46;;;;;;;4.13;3.42;;;7.60;99.90;;;;;;6194365;23;20023;-90
2022/11/05 09:46:20;;;;;;;4.22;3.80;;;7.70;99.90;;;;;;6195949;23;20019;-91
2022/11/05 09:49:42;;;;;;;3.95;2.70;;;7.70;99.90;;;;;;6194593;23;20020;-90
2022/11/05 09:53:05;;;;;;;4.93;3.75;;;7.70;99.90;;;;;;6215151;23;20027;-90
2022/11/05 10:00:24;;;;;;;4.53;3.03;;;7.80;99.90;;;;;;6105203;23;20031;-87
2022/11/05 10:03:10;;;;;;;4.57;4.15;;;7.70;99.90;;;;;;6174520;23;20073;-86
2022/11/05 10:06:13;;;;;;;5.20;4.18;;;7.70;99.90;;;;;;6220392;23;20020;-85
2022/11/05 10:09:50;;;;;;;;;;;;;;;;;;;;;
2022/11/05 10:18:20;;;;;;;3.58;3.28;;;7.60;99.90;;;;;;6074606;23;20021;-84
2022/11/05 10:20:54;;;;;;;2.25;2.05;;;7.50;99.90;;;;;;6097586;23;20017;-84
2022/11/05 10:23:46;;;;;;;2.40;2.00;;;7.40;99.90;;;;;;6103386;23;20025;-83
2022/11/05 10:26:44;;;;;;;3.00;2.50;;;7.50;99.90;;;;;;6102906;23;20024;-85
2022/11/05 10:38:07;;;;;;;1.67;1.58;;;7.70;99.90;;;;;;6178218;23;19927;-83
2022/11/05 10:42:40;;;;;;;3.95;1.77;;;7.70;99.90;;;;;;6087611;22;20029;-83
2022/11/05 10:49:58;;;;;;;1.65;1.55;;;7.50;99.90;;;;;;6176330;23;20029;-84
2022/11/05 10:53:13;;;;;;;2.90;2.35;;;7.50;99.90;;;;;;6113695;23;20592;-87
2022/11/05 10:56:39;;;;;;;1.67;1.58;;;7.50;99.90;;;;;;6148247;23;20020;-87
2022/11/05 10:59:23;;;;;;;2.00;1.90;;;7.50;99.90;;;;;;6169821;23;20028;-87
2022/11/05 11:02:23;;;;;;;2.53;1.60;;;7.60;99.90;;;;;;6141030;23;20024;-86
2022/11/05 11:05:31;;;;;;;2.42;2.22;;;7.50;99.90;;;;;;6187432;23;20025;-86
2022/11/05 11:08:07;;;;;;;1.92;1.83;;;7.40;99.90;;;;;;6085094;23;20021;-87
2022/11/05 11:11:29;;;;;;;1.70;1.52;;;7.40;99.90;;;;;;6127676;23;20022;-86
2022/11/05 11:29:48;;;;;;;1.08;0.98;;;7.40;99.90;;;;;;6131608;23;20033;-84
2022/11/05 11:33:16;;;;;;;1.20;1.10;;;7.40;99.90;;;;;;6116270;23;20037;-84
2022/11/05 11:36:41;;;;;;;1.08;1.00;;;7.20;99.90;;;;;;6111051;23;20365;-83
2022/11/05 11:44:40;;;;;;;1.90;1.63;;;7.20;99.90;;;;;;6196602;23;20018;-84
2022/11/05 11:47:29;;;;;;;1.00;0.75;;;7.30;99.90;;;;;;6137322;23;20025;-83
2022/11/05 11:50:25;;;;;;;1.20;1.10;;;7.20;99.90;;;;;;6131309;23;20024;-83
2022/11/05 11:53:33;;;;;;;0.98;0.98;;;7.20;99.90;;;;;;6132418;23;20795;-83
2022/11/05 11:57:07;;;;;;;0.90;0.90;;;7.20;99.90;;;;;;6154965;23;20052;-83
2022/11/05 12:30:19;;;;;;;0.90;0.90;;;7.30;99.90;;;;;;6238600;22;20478;-88
2022/11/05 12:33:26;;;;;;;1.00;0.88;;;7.30;99.90;;;;;;6245181;22;20347;-88
2022/11/05 12:36:02;;;;;;;1.58;1.48;;;7.30;99.90;;;;;;6213469;22;20032;-88
2022/11/05 12:39:03;;;;;;;3.28;1.73;;;7.30;99.90;;;;;;6218047;22;20019;-87
2022/11/05 12:41:53;;;;;;;2.60;2.03;;;7.40;99.90;;;;;;6231445;22;20016;-89
2022/11/05 12:44:58;;;;;;;1.90;1.70;;;7.40;99.90;;;;;;6186157;22;20027;-86
2022/11/05 12:48:07;;;;;;;2.38;1.80;;;7.40;99.90;;;;;;6190495;23;20028;-87
2022/11/05 12:55:42;;;;;;;;;;;;;;;;;;;;;
2022/11/05 13:06:13;;;;;;;1.70;1.60;;;7.10;99.90;;;;;;6264082;22;20023;-90
2022/11/05 13:14:14;;;;;;;;;;;;;;;;;;;;;
2022/11/05 14:32:42;;;;;;;1.70;1.60;;;7.40;99.90;;;;;;6188744;23;19926;-85
2022/11/05 14:53:27;;;;;;;1.70;1.60;;;7.00;99.90;;;;;;6241011;22;20011;-86
2022/11/05 14:56:50;;;;;;;1.80;1.70;;;7.00;99.90;;;;;;6186755;22;20031;-85
2022/11/05 14:59:30;;;;;;;2.63;2.42;;;6.90;99.90;;;;;;6135818;23;20031;-85
2022/11/05 15:02:14;;;;;;;2.25;2.05;;;7.00;99.90;;;;;;6189359;23;20031;-85
2022/11/05 15:04:46;;;;;;;1.80;1.52;;;7.00;99.90;;;;;;6175987;23;20043;-86
2022/11/05 15:07:23;;;;;;;1.70;1.52;;;7.00;99.90;;;;;;6232221;23;20494;-85
2022/11/05 15:10:16;;;;;;;2.15;1.98;;;7.00;99.90;;;;;;6187402;23;20023;-86
2022/11/05 15:13:04;;;;;;;2.15;2.05;;;7.00;99.90;;;;;;6160443;23;20526;-85
2022/11/05 15:15:49;;;;;;;3.58;2.30;;;7.00;99.90;;;;;;6167343;23;20336;-86
2022/11/05 15:18:39;;;;;;;2.47;2.28;;;7.00;99.90;;;;;;6169817;23;20016;-86
2022/11/05 15:21:29;;;;;;;;;;;7.00;99.90;;;;;;6153754;23;20035;-86
2022/11/05 15:24:42;;;;;;;1.70;1.60;;;6.90;99.90;;;;;;6200709;23;19922;-87
2022/11/05 15:27:26;;;;;;;2.55;2.35;;;7.00;99.90;;;;;;6177772;23;20024;-87
2022/11/05 15:30:17;;;;;;;3.83;2.22;;;7.00;99.90;;;;;;6168084;23;20024;-86
2022/11/05 15:37:36;;;;;;;2.03;1.83;;;7.10;99.90;;;;;;6170557;23;20024;-87
2022/11/05 15:41:02;;;;;;;1.63;1.52;;;7.10;99.90;;;;;;6206318;23;20023;-86
2022/11/05 16:02:13;;;;;;;;;;;6.90;99.90;;;;;;6090265;23;20319;-86
2022/11/05 18:57:36;;;;;;;3.88;3.28;;;6.30;99.90;;;;;;6208194;22;20032;-90
2022/11/05 19:00:04;;;;;;;7.95;3.65;;;6.30;99.90;;;;;;6159482;23;20013;-88
2022/11/05 22:58:47;;;;;;;11.50;7.38;;;5.80;99.90;;;;;;6194204;22;20020;-87
